sensor_id;sensor_type;location;lat;lon;timestamp;P1;durP1;ratioP1;P2;durP2;ratioP2
81310;SDS011;70779;52.506;5.492;2023-08-20T04:47:39;5.05;;;3.20;;
81310;SDS011;70779;52.506;5.492;2023-08-20T04:50:07;13.35;;;3.55;;
81310;SDS011;70779;52.506;5.492;2023-08-20T04:52:33;11.63;;;3.00;;
81310;SDS011;70779;52.506;5.492;2023-08-20T04:55:00;10.65;;;3.25;;
81310;SDS011;70779;52.506;5.492;2023-08-20T04:57:27;9.10;;;3.30;;
81310;SDS011;70779;52.506;5.492;2023-08-20T04:59:55;7.63;;;2.42;;
81310;SDS011;70779;52.506;5.492;2023-08-20T05:02:30;9.18;;;2.90;;
81310;SDS011;70779;52.506;5.492;2023-08-20T05:04:59;10.75;;;3.28;;
81310;SDS011;70779;52.506;5.492;2023-08-20T05:07:25;7.07;;;2.72;;
81310;SDS011;70779;52.506;5.492;2023-08-20T05:09:52;7.63;;;2.05;;
81310;SDS011;70779;52.506;5.492;2023-08-20T05:12:18;10.70;;;3.38;;
81310;SDS011;70779;52.506;5.492;2023-08-20T05:14:44;8.23;;;2.88;;
81310;SDS011;70779;52.506;5.492;2023-08-20T05:17:10;5.55;;;2.88;;
81310;SDS011;70779;52.506;5.492;2023-08-20T05:19:36;8.75;;;2.85;;
81310;SDS011;70779;52.506;5.492;2023-08-20T05:22:02;12.00;;;3.40;;
81310;SDS011;70779;52.506;5.492;2023-08-20T05:24:32;7.40;;;3.67;;
81310;SDS011;70779;52.506;5.492;2023-08-20T05:29:32;6.30;;;2.45;;
81310;SDS011;70779;52.506;5.492;2023-08-20T05:31:59;12.32;;;3.38;;
81310;SDS011;70779;52.506;5.492;2023-08-20T05:34:25;10.75;;;3.88;;
81310;SDS011;70779;52.506;5.492;2023-08-20T05:36:51;8.75;;;5.50;;
81310;SDS011;70779;52.506;5.492;2023-08-20T05:39:18;7.07;;;4.40;;
81310;SDS011;70779;52.506;5.492;2023-08-20T05:41:44;8.02;;;2.33;;
81310;SDS011;70779;52.506;5.492;2023-08-20T05:44:10;4.85;;;1.75;;
81310;SDS011;70779;52.506;5.492;2023-08-20T05:46:36;8.80;;;1.90;;
81310;SDS011;70779;52.506;5.492;2023-08-20T05:49:03;6.13;;;2.13;;
81310;SDS011;70779;52.506;5.492;2023-08-20T05:51:33;7.88;;;1.80;;
81310;SDS011;70779;52.506;5.492;2023-08-20T05:53:59;7.70;;;2.05;;
81310;SDS011;70779;52.506;5.492;2023-08-20T05:56:25;6.03;;;2.03;;
81310;SDS011;70779;52.506;5.492;2023-08-20T05:58:52;5.30;;;2.53;;
81310;SDS011;70779;52.506;5.492;2023-08-20T06:01:18;8.32;;;2.75;;
81310;SDS011;70779;52.506;5.492;2023-08-20T06:03:44;11.40;;;2.78;;
81310;SDS011;70779;52.506;5.492;2023-08-20T06:06:10;8.75;;;2.25;;
81310;SDS011;70779;52.506;5.492;2023-08-20T06:08:36;8.27;;;2.83;;
81310;SDS011;70779;52.506;5.492;2023-08-20T06:11:02;9.30;;;3.20;;
81310;SDS011;70779;52.506;5.492;2023-08-20T06:13:28;9.15;;;2.65;;
81310;SDS011;70779;52.506;5.492;2023-08-20T06:15:54;8.32;;;3.40;;
81310;SDS011;70779;52.506;5.492;2023-08-20T06:18:21;9.77;;;2.78;;
81310;SDS011;70779;52.506;5.492;2023-08-20T06:20:47;8.43;;;2.55;;
81310;SDS011;70779;52.506;5.492;2023-08-20T06:23:13;11.98;;;2.92;;
81310;SDS011;70779;52.506;5.492;2023-08-20T06:25:39;8.38;;;2.72;;
81310;SDS011;70779;52.506;5.492;2023-08-20T06:28:05;12.88;;;3.03;;
81310;SDS011;70779;52.506;5.492;2023-08-20T06:30:31;11.48;;;3.53;;
81310;SDS011;70779;52.506;5.492;2023-08-20T06:32:57;7.68;;;3.08;;
81310;SDS011;70779;52.506;5.492;2023-08-20T06:35:23;8.88;;;2.70;;
81310;SDS011;70779;52.506;5.492;2023-08-20T06:37:49;9.48;;;2.45;;
81310;SDS011;70779;52.506;5.492;2023-08-20T06:40:15;9.90;;;2.90;;
81310;SDS011;70779;52.506;5.492;2023-08-20T06:42:41;7.28;;;2.28;;
81310;SDS011;70779;52.506;5.492;2023-08-20T06:45:08;13.23;;;2.63;;
81310;SDS011;70779;52.506;5.492;2023-08-20T06:47:35;11.63;;;2.40;;
81310;SDS011;70779;52.506;5.492;2023-08-20T06:50:01;9.38;;;2.65;;
81310;SDS011;70779;52.506;5.492;2023-08-20T06:52:27;7.57;;;1.75;;
81310;SDS011;70779;52.506;5.492;2023-08-20T06:54:53;6.63;;;1.90;;
81310;SDS011;70779;52.506;5.492;2023-08-20T06:57:19;7.03;;;2.03;;
81310;SDS011;70779;52.506;5.492;2023-08-20T06:59:46;4.72;;;1.40;;
81310;SDS011;70779;52.506;5.492;2023-08-20T07:02:12;5.50;;;1.90;;
81310;SDS011;70779;52.506;5.492;2023-08-20T07:04:38;10.63;;;1.92;;
81310;SDS011;70779;52.506;5.492;2023-08-20T07:07:04;9.68;;;1.58;;
81310;SDS011;70779;52.506;5.492;2023-08-20T07:09:30;4.53;;;1.50;;
81310;SDS011;70779;52.506;5.492;2023-08-20T07:11:56;9.63;;;2.63;;
81310;SDS011;70779;52.506;5.492;2023-08-20T07:14:22;7.28;;;1.73;;
81310;SDS011;70779;52.506;5.492;2023-08-20T07:16:48;9.27;;;1.45;;
81310;SDS011;70779;52.506;5.492;2023-08-20T07:19:15;10.02;;;2.10;;
81310;SDS011;70779;52.506;5.492;2023-08-20T07:21:41;10.88;;;1.90;;
81310;SDS011;70779;52.506;5.492;2023-08-20T07:24:07;10.25;;;2.03;;
81310;SDS011;70779;52.506;5.492;2023-08-20T07:26:33;8.25;;;1.95;;
81310;SDS011;70779;52.506;5.492;2023-08-20T07:28:59;9.07;;;1.50;;
81310;SDS011;70779;52.506;5.492;2023-08-20T07:31:29;6.45;;;1.40;;
81310;SDS011;70779;52.506;5.492;2023-08-20T07:33:57;8.32;;;1.70;;
81310;SDS011;70779;52.506;5.492;2023-08-20T07:36:24;7.03;;;1.92;;
81310;SDS011;70779;52.506;5.492;2023-08-20T07:38:51;7.30;;;1.52;;
81310;SDS011;70779;52.506;5.492;2023-08-20T07:41:19;8.05;;;1.50;;
81310;SDS011;70779;52.506;5.492;2023-08-20T07:43:46;7.72;;;1.42;;
81310;SDS011;70779;52.506;5.492;2023-08-20T07:46:13;6.82;;;1.80;;
81310;SDS011;70779;52.506;5.492;2023-08-20T07:48:40;7.38;;;1.60;;
81310;SDS011;70779;52.506;5.492;2023-08-20T07:51:06;8.05;;;1.52;;
81310;SDS011;70779;52.506;5.492;2023-08-20T07:53:33;6.85;;;2.05;;
81310;SDS011;70779;52.506;5.492;2023-08-20T07:56:00;9.90;;;2.30;;
81310;SDS011;70779;52.506;5.492;2023-08-20T07:58:26;7.03;;;1.27;;
81310;SDS011;70779;52.506;5.492;2023-08-20T08:00:54;6.40;;;1.10;;
81310;SDS011;70779;52.506;5.492;2023-08-20T08:03:20;6.30;;;1.55;;
81310;SDS011;70779;52.506;5.492;2023-08-20T08:05:47;8.57;;;2.65;;
81310;SDS011;70779;52.506;5.492;2023-08-20T08:08:15;5.82;;;1.35;;
81310;SDS011;70779;52.506;5.492;2023-08-20T08:10:41;6.88;;;1.55;;
81310;SDS011;70779;52.506;5.492;2023-08-20T08:13:10;5.95;;;1.83;;
81310;SDS011;70779;52.506;5.492;2023-08-20T08:15:37;6.25;;;1.15;;
81310;SDS011;70779;52.506;5.492;2023-08-20T08:18:03;10.10;;;1.67;;
81310;SDS011;70779;52.506;5.492;2023-08-20T08:20:29;7.47;;;1.98;;
81310;SDS011;70779;52.506;5.492;2023-08-20T08:22:55;7.30;;;1.65;;
81310;SDS011;70779;52.506;5.492;2023-08-20T08:25:22;4.57;;;1.38;;
81310;SDS011;70779;52.506;5.492;2023-08-20T08:27:48;9.88;;;1.77;;
81310;SDS011;70779;52.506;5.492;2023-08-20T08:30:14;6.57;;;1.88;;
81310;SDS011;70779;52.506;5.492;2023-08-20T08:32:40;7.05;;;1.65;;
81310;SDS011;70779;52.506;5.492;2023-08-20T08:35:07;8.00;;;2.08;;
81310;SDS011;70779;52.506;5.492;2023-08-20T08:37:33;14.77;;;3.13;;
81310;SDS011;70779;52.506;5.492;2023-08-20T08:39:59;16.10;;;2.40;;
81310;SDS011;70779;52.506;5.492;2023-08-20T08:42:25;7.10;;;1.50;;
81310;SDS011;70779;52.506;5.492;2023-08-20T08:44:52;7.80;;;1.40;;
81310;SDS011;70779;52.506;5.492;2023-08-20T08:47:18;15.60;;;2.30;;
81310;SDS011;70779;52.506;5.492;2023-08-20T08:49:46;9.40;;;1.30;;
81310;SDS011;70779;52.506;5.492;2023-08-20T08:52:13;7.50;;;1.33;;
81310;SDS011;70779;52.506;5.492;2023-08-20T08:54:40;5.82;;;1.42;;
81310;SDS011;70779;52.506;5.492;2023-08-20T08:57:06;5.45;;;1.55;;
81310;SDS011;70779;52.506;5.492;2023-08-20T08:59:32;7.38;;;2.13;;
81310;SDS011;70779;52.506;5.492;2023-08-20T09:01:58;9.18;;;1.65;;
81310;SDS011;70779;52.506;5.492;2023-08-20T09:04:24;5.95;;;1.70;;
81310;SDS011;70779;52.506;5.492;2023-08-20T09:06:51;5.32;;;2.10;;
81310;SDS011;70779;52.506;5.492;2023-08-20T09:09:18;5.68;;;1.70;;
81310;SDS011;70779;52.506;5.492;2023-08-20T09:11:46;6.07;;;1.58;;
81310;SDS011;70779;52.506;5.492;2023-08-20T09:14:23;6.35;;;1.83;;
81310;SDS011;70779;52.506;5.492;2023-08-20T09:16:57;6.07;;;1.40;;
81310;SDS011;70779;52.506;5.492;2023-08-20T09:21:53;6.70;;;2.10;;
81310;SDS011;70779;52.506;5.492;2023-08-20T09:24:34;7.40;;;1.80;;
81310;SDS011;70779;52.506;5.492;2023-08-20T09:27:17;7.25;;;1.83;;
81310;SDS011;70779;52.506;5.492;2023-08-20T09:29:46;6.97;;;1.73;;
81310;SDS011;70779;52.506;5.492;2023-08-20T09:32:23;7.03;;;2.17;;
81310;SDS011;70779;52.506;5.492;2023-08-20T09:34:51;6.72;;;1.90;;
81310;SDS011;70779;52.506;5.492;2023-08-20T09:37:23;5.40;;;1.63;;
81310;SDS011;70779;52.506;5.492;2023-08-20T09:39:50;5.38;;;1.60;;
81310;SDS011;70779;52.506;5.492;2023-08-20T09:42:17;7.57;;;1.83;;
81310;SDS011;70779;52.506;5.492;2023-08-20T09:44:44;7.03;;;1.83;;
81310;SDS011;70779;52.506;5.492;2023-08-20T09:47:12;7.55;;;2.00;;
81310;SDS011;70779;52.506;5.492;2023-08-20T09:49:45;110.55;;;6.80;;
81310;SDS011;70779;52.506;5.492;2023-08-20T09:52:16;269.88;;;17.05;;
81310;SDS011;70779;52.506;5.492;2023-08-20T09:55:00;209.15;;;14.48;;
81310;SDS011;70779;52.506;5.492;2023-08-20T09:57:41;6.90;;;1.85;;
81310;SDS011;70779;52.506;5.492;2023-08-20T10:00:08;11.15;;;1.83;;
81310;SDS011;70779;52.506;5.492;2023-08-20T10:02:42;12.35;;;1.60;;
81310;SDS011;70779;52.506;5.492;2023-08-20T10:05:09;5.72;;;1.70;;
81310;SDS011;70779;52.506;5.492;2023-08-20T10:07:36;11.10;;;1.98;;
81310;SDS011;70779;52.506;5.492;2023-08-20T10:10:03;5.43;;;1.38;;
81310;SDS011;70779;52.506;5.492;2023-08-20T10:12:31;8.30;;;1.83;;
81310;SDS011;70779;52.506;5.492;2023-08-20T10:14:58;6.97;;;2.00;;
81310;SDS011;70779;52.506;5.492;2023-08-20T10:17:25;8.13;;;1.95;;
81310;SDS011;70779;52.506;5.492;2023-08-20T10:19:55;7.85;;;1.73;;
81310;SDS011;70779;52.506;5.492;2023-08-20T10:22:31;7.60;;;2.10;;
81310;SDS011;70779;52.506;5.492;2023-08-20T10:24:59;8.18;;;1.80;;
81310;SDS011;70779;52.506;5.492;2023-08-20T10:27:30;7.15;;;1.60;;
81310;SDS011;70779;52.506;5.492;2023-08-20T10:29:58;7.18;;;1.65;;
81310;SDS011;70779;52.506;5.492;2023-08-20T10:35:17;7.07;;;1.73;;
81310;SDS011;70779;52.506;5.492;2023-08-20T10:38:03;5.95;;;2.00;;
81310;SDS011;70779;52.506;5.492;2023-08-20T10:40:52;8.80;;;1.73;;
81310;SDS011;70779;52.506;5.492;2023-08-20T10:48:33;9.38;;;1.80;;
81310;SDS011;70779;52.506;5.492;2023-08-20T10:51:17;7.53;;;1.77;;
81310;SDS011;70779;52.506;5.492;2023-08-20T10:56:45;5.93;;;1.80;;
81310;SDS011;70779;52.506;5.492;2023-08-20T10:59:15;7.30;;;1.70;;
81310;SDS011;70779;52.506;5.492;2023-08-20T11:01:48;6.10;;;1.48;;
81310;SDS011;70779;52.506;5.492;2023-08-20T11:04:16;6.35;;;1.40;;
81310;SDS011;70779;52.506;5.492;2023-08-20T11:06:45;6.22;;;1.52;;
81310;SDS011;70779;52.506;5.492;2023-08-20T11:09:12;6.45;;;1.80;;
81310;SDS011;70779;52.506;5.492;2023-08-20T11:11:39;6.65;;;1.70;;
81310;SDS011;70779;52.506;5.492;2023-08-20T11:14:06;4.00;;;1.23;;
81310;SDS011;70779;52.506;5.492;2023-08-20T11:16:36;3.70;;;1.58;;
81310;SDS011;70779;52.506;5.492;2023-08-20T11:19:03;6.63;;;1.85;;
81310;SDS011;70779;52.506;5.492;2023-08-20T11:21:40;4.07;;;1.55;;
81310;SDS011;70779;52.506;5.492;2023-08-20T11:24:08;6.28;;;1.45;;
81310;SDS011;70779;52.506;5.492;2023-08-20T11:26:35;8.27;;;0.98;;
81310;SDS011;70779;52.506;5.492;2023-08-20T11:29:05;7.32;;;1.67;;
81310;SDS011;70779;52.506;5.492;2023-08-20T11:31:32;6.35;;;2.22;;
81310;SDS011;70779;52.506;5.492;2023-08-20T11:33:58;6.43;;;1.33;;
81310;SDS011;70779;52.506;5.492;2023-08-20T11:36:24;5.15;;;1.20;;
81310;SDS011;70779;52.506;5.492;2023-08-20T11:38:50;4.75;;;1.35;;
81310;SDS011;70779;52.506;5.492;2023-08-20T11:41:20;8.57;;;1.77;;
81310;SDS011;70779;52.506;5.492;2023-08-20T11:43:47;7.50;;;1.45;;
81310;SDS011;70779;52.506;5.492;2023-08-20T11:46:15;5.78;;;1.38;;
81310;SDS011;70779;52.506;5.492;2023-08-20T11:49:05;5.50;;;1.42;;
81310;SDS011;70779;52.506;5.492;2023-08-20T11:51:42;5.50;;;1.30;;
81310;SDS011;70779;52.506;5.492;2023-08-20T11:54:13;5.82;;;1.10;;
81310;SDS011;70779;52.506;5.492;2023-08-20T11:56:50;5.40;;;1.40;;
81310;SDS011;70779;52.506;5.492;2023-08-20T11:59:20;5.80;;;1.38;;
81310;SDS011;70779;52.506;5.492;2023-08-20T12:01:50;4.60;;;0.82;;
81310;SDS011;70779;52.506;5.492;2023-08-20T12:04:27;6.68;;;1.20;;
81310;SDS011;70779;52.506;5.492;2023-08-20T12:07:13;7.85;;;1.33;;
81310;SDS011;70779;52.506;5.492;2023-08-20T12:09:40;4.80;;;1.52;;
81310;SDS011;70779;52.506;5.492;2023-08-20T12:12:07;4.05;;;1.10;;
81310;SDS011;70779;52.506;5.492;2023-08-20T12:14:34;7.25;;;1.20;;
81310;SDS011;70779;52.506;5.492;2023-08-20T12:17:01;5.25;;;1.05;;
81310;SDS011;70779;52.506;5.492;2023-08-20T12:19:29;5.63;;;0.93;;
81310;SDS011;70779;52.506;5.492;2023-08-20T12:21:55;4.47;;;0.73;;
81310;SDS011;70779;52.506;5.492;2023-08-20T12:24:21;5.10;;;1.67;;
81310;SDS011;70779;52.506;5.492;2023-08-20T12:26:48;4.03;;;1.00;;
81310;SDS011;70779;52.506;5.492;2023-08-20T12:29:14;9.40;;;3.92;;
81310;SDS011;70779;52.506;5.492;2023-08-20T12:31:40;9.52;;;3.63;;
81310;SDS011;70779;52.506;5.492;2023-08-20T12:34:07;5.60;;;0.88;;
81310;SDS011;70779;52.506;5.492;2023-08-20T12:36:34;4.50;;;1.83;;
81310;SDS011;70779;52.506;5.492;2023-08-20T12:39:01;6.20;;;1.48;;
81310;SDS011;70779;52.506;5.492;2023-08-20T12:41:29;8.80;;;3.22;;
81310;SDS011;70779;52.506;5.492;2023-08-20T12:43:55;3.92;;;0.98;;
81310;SDS011;70779;52.506;5.492;2023-08-20T12:46:21;6.22;;;1.98;;
81310;SDS011;70779;52.506;5.492;2023-08-20T12:48:47;7.22;;;0.90;;
81310;SDS011;70779;52.506;5.492;2023-08-20T12:51:13;4.75;;;1.38;;
81310;SDS011;70779;52.506;5.492;2023-08-20T12:53:43;4.05;;;0.90;;
81310;SDS011;70779;52.506;5.492;2023-08-20T12:56:09;4.97;;;1.33;;
81310;SDS011;70779;52.506;5.492;2023-08-20T12:58:35;9.73;;;5.53;;
81310;SDS011;70779;52.506;5.492;2023-08-20T13:01:01;10.45;;;1.38;;
81310;SDS011;70779;52.506;5.492;2023-08-20T13:03:27;5.82;;;1.23;;
81310;SDS011;70779;52.506;5.492;2023-08-20T13:05:54;4.90;;;0.98;;
81310;SDS011;70779;52.506;5.492;2023-08-20T13:08:23;7.88;;;1.70;;
81310;SDS011;70779;52.506;5.492;2023-08-20T13:10:50;4.80;;;1.23;;
81310;SDS011;70779;52.506;5.492;2023-08-20T13:13:22;6.57;;;1.45;;
81310;SDS011;70779;52.506;5.492;2023-08-20T13:15:52;7.53;;;1.40;;
81310;SDS011;70779;52.506;5.492;2023-08-20T13:18:20;3.10;;;1.23;;
81310;SDS011;70779;52.506;5.492;2023-08-20T13:20:51;5.07;;;1.38;;
81310;SDS011;70779;52.506;5.492;2023-08-20T13:23:20;4.28;;;1.10;;
81310;SDS011;70779;52.506;5.492;2023-08-20T13:25:46;6.75;;;1.30;;
81310;SDS011;70779;52.506;5.492;2023-08-20T13:28:13;7.80;;;1.42;;
81310;SDS011;70779;52.506;5.492;2023-08-20T13:30:39;6.05;;;1.20;;
81310;SDS011;70779;52.506;5.492;2023-08-20T13:33:05;8.98;;;1.50;;
81310;SDS011;70779;52.506;5.492;2023-08-20T13:35:31;4.95;;;1.08;;
81310;SDS011;70779;52.506;5.492;2023-08-20T13:37:57;5.05;;;1.55;;
81310;SDS011;70779;52.506;5.492;2023-08-20T13:40:23;5.72;;;1.25;;
81310;SDS011;70779;52.506;5.492;2023-08-20T13:42:50;5.03;;;1.30;;
81310;SDS011;70779;52.506;5.492;2023-08-20T13:45:16;5.78;;;0.85;;
81310;SDS011;70779;52.506;5.492;2023-08-20T13:47:42;4.53;;;1.58;;
81310;SDS011;70779;52.506;5.492;2023-08-20T13:50:10;6.85;;;1.30;;
81310;SDS011;70779;52.506;5.492;2023-08-20T13:52:36;4.22;;;1.15;;
81310;SDS011;70779;52.506;5.492;2023-08-20T13:55:02;4.35;;;0.90;;
81310;SDS011;70779;52.506;5.492;2023-08-20T13:57:28;7.93;;;1.63;;
81310;SDS011;70779;52.506;5.492;2023-08-20T13:59:54;5.30;;;1.08;;
81310;SDS011;70779;52.506;5.492;2023-08-20T14:02:21;6.40;;;1.52;;
81310;SDS011;70779;52.506;5.492;2023-08-20T14:04:47;6.43;;;1.30;;
81310;SDS011;70779;52.506;5.492;2023-08-20T14:07:13;4.47;;;0.82;;
81310;SDS011;70779;52.506;5.492;2023-08-20T14:09:39;4.45;;;1.55;;
81310;SDS011;70779;52.506;5.492;2023-08-20T14:12:06;5.22;;;0.90;;
81310;SDS011;70779;52.506;5.492;2023-08-20T14:14:32;4.75;;;1.02;;
81310;SDS011;70779;52.506;5.492;2023-08-20T14:16:58;7.00;;;1.40;;
81310;SDS011;70779;52.506;5.492;2023-08-20T14:19:24;5.15;;;1.00;;
81310;SDS011;70779;52.506;5.492;2023-08-20T14:21:50;3.97;;;0.85;;
81310;SDS011;70779;52.506;5.492;2023-08-20T14:24:17;7.15;;;0.90;;
81310;SDS011;70779;52.506;5.492;2023-08-20T14:26:43;5.20;;;0.90;;
81310;SDS011;70779;52.506;5.492;2023-08-20T14:29:09;5.75;;;0.90;;
81310;SDS011;70779;52.506;5.492;2023-08-20T14:31:35;4.68;;;0.93;;
81310;SDS011;70779;52.506;5.492;2023-08-20T14:34:02;5.53;;;1.05;;
81310;SDS011;70779;52.506;5.492;2023-08-20T14:36:28;8.52;;;1.15;;
81310;SDS011;70779;52.506;5.492;2023-08-20T14:38:54;5.68;;;1.20;;
81310;SDS011;70779;52.506;5.492;2023-08-20T14:41:20;5.88;;;1.13;;
81310;SDS011;70779;52.506;5.492;2023-08-20T14:43:46;4.82;;;0.93;;
81310;SDS011;70779;52.506;5.492;2023-08-20T14:46:12;5.80;;;0.95;;
81310;SDS011;70779;52.506;5.492;2023-08-20T14:48:38;4.05;;;0.73;;
81310;SDS011;70779;52.506;5.492;2023-08-20T14:51:06;4.97;;;0.85;;
81310;SDS011;70779;52.506;5.492;2023-08-20T14:53:33;5.72;;;1.00;;
81310;SDS011;70779;52.506;5.492;2023-08-20T14:55:59;5.78;;;0.95;;
81310;SDS011;70779;52.506;5.492;2023-08-20T14:58:25;5.35;;;1.00;;
81310;SDS011;70779;52.506;5.492;2023-08-20T15:00:51;3.60;;;0.70;;
81310;SDS011;70779;52.506;5.492;2023-08-20T15:03:17;5.90;;;1.35;;
81310;SDS011;70779;52.506;5.492;2023-08-20T15:05:44;2.65;;;1.10;;
81310;SDS011;70779;52.506;5.492;2023-08-20T15:08:10;4.00;;;0.98;;
81310;SDS011;70779;52.506;5.492;2023-08-20T15:10:36;3.50;;;0.80;;
81310;SDS011;70779;52.506;5.492;2023-08-20T15:13:03;5.00;;;1.40;;
81310;SDS011;70779;52.506;5.492;2023-08-20T15:15:30;4.25;;;0.88;;
81310;SDS011;70779;52.506;5.492;2023-08-20T15:17:57;3.83;;;0.65;;
81310;SDS011;70779;52.506;5.492;2023-08-20T15:20:23;7.40;;;1.80;;
81310;SDS011;70779;52.506;5.492;2023-08-20T15:22:49;5.60;;;1.77;;
81310;SDS011;70779;52.506;5.492;2023-08-20T15:25:15;5.45;;;1.30;;
81310;SDS011;70779;52.506;5.492;2023-08-20T15:27:41;5.85;;;0.82;;
81310;SDS011;70779;52.506;5.492;2023-08-20T15:30:07;5.22;;;1.25;;
81310;SDS011;70779;52.506;5.492;2023-08-20T15:32:34;5.28;;;1.10;;
81310;SDS011;70779;52.506;5.492;2023-08-20T15:35:01;8.65;;;1.58;;
81310;SDS011;70779;52.506;5.492;2023-08-20T15:37:32;5.22;;;1.65;;
81310;SDS011;70779;52.506;5.492;2023-08-20T15:39:58;4.75;;;1.42;;
81310;SDS011;70779;52.506;5.492;2023-08-20T15:42:24;3.65;;;1.10;;
81310;SDS011;70779;52.506;5.492;2023-08-20T15:44:50;3.72;;;1.10;;
81310;SDS011;70779;52.506;5.492;2023-08-20T15:47:16;5.10;;;1.20;;
81310;SDS011;70779;52.506;5.492;2023-08-20T15:49:42;4.35;;;1.02;;
81310;SDS011;70779;52.506;5.492;2023-08-20T15:52:08;6.32;;;1.40;;
81310;SDS011;70779;52.506;5.492;2023-08-20T15:54:35;6.28;;;1.45;;
81310;SDS011;70779;52.506;5.492;2023-08-20T15:57:01;8.68;;;2.92;;
81310;SDS011;70779;52.506;5.492;2023-08-20T15:59:27;4.93;;;1.48;;
81310;SDS011;70779;52.506;5.492;2023-08-20T16:01:53;3.50;;;1.30;;
81310;SDS011;70779;52.506;5.492;2023-08-20T16:04:19;5.43;;;1.83;;
81310;SDS011;70779;52.506;5.492;2023-08-20T16:06:46;3.97;;;1.50;;
81310;SDS011;70779;52.506;5.492;2023-08-20T16:09:12;7.60;;;2.00;;
81310;SDS011;70779;52.506;5.492;2023-08-20T16:11:38;6.07;;;2.00;;
81310;SDS011;70779;52.506;5.492;2023-08-20T16:14:04;5.18;;;1.42;;
81310;SDS011;70779;52.506;5.492;2023-08-20T16:16:30;6.35;;;1.42;;
81310;SDS011;70779;52.506;5.492;2023-08-20T16:18:56;4.68;;;1.75;;
81310;SDS011;70779;52.506;5.492;2023-08-20T16:21:22;3.05;;;0.70;;
81310;SDS011;70779;52.506;5.492;2023-08-20T16:23:48;6.30;;;2.03;;
81310;SDS011;70779;52.506;5.492;2023-08-20T16:26:15;6.93;;;3.20;;
81310;SDS011;70779;52.506;5.492;2023-08-20T16:28:41;9.35;;;4.43;;
81310;SDS011;70779;52.506;5.492;2023-08-20T16:31:07;4.88;;;1.70;;
81310;SDS011;70779;52.506;5.492;2023-08-20T16:33:35;7.65;;;2.67;;
81310;SDS011;70779;52.506;5.492;2023-08-20T16:36:01;9.27;;;4.60;;
81310;SDS011;70779;52.506;5.492;2023-08-20T16:38:27;6.40;;;2.20;;
81310;SDS011;70779;52.506;5.492;2023-08-20T16:40:53;6.28;;;2.17;;
81310;SDS011;70779;52.506;5.492;2023-08-20T16:43:19;4.90;;;1.13;;
81310;SDS011;70779;52.506;5.492;2023-08-20T16:45:45;4.43;;;1.50;;
81310;SDS011;70779;52.506;5.492;2023-08-20T16:48:11;6.13;;;1.52;;
81310;SDS011;70779;52.506;5.492;2023-08-20T16:50:37;4.55;;;1.17;;
81310;SDS011;70779;52.506;5.492;2023-08-20T16:53:04;6.03;;;1.20;;
81310;SDS011;70779;52.506;5.492;2023-08-20T16:55:30;3.30;;;0.70;;
81310;SDS011;70779;52.506;5.492;2023-08-20T16:57:56;5.47;;;0.90;;
81310;SDS011;70779;52.506;5.492;2023-08-20T17:00:22;5.05;;;1.08;;
81310;SDS011;70779;52.506;5.492;2023-08-20T17:02:49;3.75;;;0.70;;
81310;SDS011;70779;52.506;5.492;2023-08-20T17:05:15;5.10;;;1.25;;
81310;SDS011;70779;52.506;5.492;2023-08-20T17:07:41;4.95;;;0.80;;
81310;SDS011;70779;52.506;5.492;2023-08-20T17:10:08;5.63;;;1.20;;
81310;SDS011;70779;52.506;5.492;2023-08-20T17:12:34;5.22;;;1.27;;
81310;SDS011;70779;52.506;5.492;2023-08-20T17:15:00;4.70;;;1.85;;
81310;SDS011;70779;52.506;5.492;2023-08-20T17:17:30;6.70;;;2.80;;
81310;SDS011;70779;52.506;5.492;2023-08-20T17:19:56;4.35;;;0.80;;
81310;SDS011;70779;52.506;5.492;2023-08-20T17:22:22;4.05;;;1.23;;
81310;SDS011;70779;52.506;5.492;2023-08-20T17:24:48;3.28;;;1.00;;
81310;SDS011;70779;52.506;5.492;2023-08-20T17:27:14;5.88;;;1.55;;
81310;SDS011;70779;52.506;5.492;2023-08-20T17:29:40;3.72;;;0.98;;
81310;SDS011;70779;52.506;5.492;2023-08-20T17:32:06;4.00;;;1.25;;
81310;SDS011;70779;52.506;5.492;2023-08-20T17:34:32;5.05;;;1.00;;
81310;SDS011;70779;52.506;5.492;2023-08-20T17:36:59;4.65;;;0.80;;
81310;SDS011;70779;52.506;5.492;2023-08-20T17:39:26;4.82;;;0.93;;
81310;SDS011;70779;52.506;5.492;2023-08-20T17:41:52;8.90;;;0.98;;
81310;SDS011;70779;52.506;5.492;2023-08-20T17:44:18;5.25;;;1.02;;
81310;SDS011;70779;52.506;5.492;2023-08-20T17:46:44;2.75;;;0.90;;
81310;SDS011;70779;52.506;5.492;2023-08-20T17:49:11;3.38;;;0.63;;
81310;SDS011;70779;52.506;5.492;2023-08-20T17:51:38;7.28;;;0.88;;
81310;SDS011;70779;52.506;5.492;2023-08-20T17:54:05;5.57;;;0.93;;
81310;SDS011;70779;52.506;5.492;2023-08-20T17:56:31;4.43;;;0.90;;
81310;SDS011;70779;52.506;5.492;2023-08-20T17:58:57;4.20;;;1.17;;
81310;SDS011;70779;52.506;5.492;2023-08-20T18:01:24;5.07;;;0.80;;
81310;SDS011;70779;52.506;5.492;2023-08-20T18:03:50;3.78;;;1.17;;
81310;SDS011;70779;52.506;5.492;2023-08-20T18:06:16;4.30;;;0.90;;
81310;SDS011;70779;52.506;5.492;2023-08-20T18:08:43;4.82;;;1.02;;
81310;SDS011;70779;52.506;5.492;2023-08-20T18:11:09;4.32;;;0.93;;
81310;SDS011;70779;52.506;5.492;2023-08-20T18:13:36;3.50;;;0.98;;
81310;SDS011;70779;52.506;5.492;2023-08-20T18:16:03;4.90;;;0.98;;
81310;SDS011;70779;52.506;5.492;2023-08-20T18:18:29;3.22;;;1.02;;
81310;SDS011;70779;52.506;5.492;2023-08-20T18:20:57;4.47;;;0.80;;
81310;SDS011;70779;52.506;5.492;2023-08-20T18:23:24;4.35;;;0.68;;
81310;SDS011;70779;52.506;5.492;2023-08-20T18:25:52;5.68;;;0.88;;
81310;SDS011;70779;52.506;5.492;2023-08-20T18:28:19;3.45;;;0.70;;
81310;SDS011;70779;52.506;5.492;2023-08-20T18:30:47;4.85;;;1.13;;
81310;SDS011;70779;52.506;5.492;2023-08-20T18:33:14;4.95;;;0.82;;
81310;SDS011;70779;52.506;5.492;2023-08-20T18:35:44;8.63;;;1.25;;
81310;SDS011;70779;52.506;5.492;2023-08-20T18:38:14;3.70;;;0.88;;
81310;SDS011;70779;52.506;5.492;2023-08-20T18:40:42;6.28;;;1.20;;
81310;SDS011;70779;52.506;5.492;2023-08-20T18:43:08;6.63;;;1.20;;
81310;SDS011;70779;52.506;5.492;2023-08-20T18:45:34;4.18;;;0.77;;
81310;SDS011;70779;52.506;5.492;2023-08-20T18:48:00;17.10;;;6.13;;
81310;SDS011;70779;52.506;5.492;2023-08-20T18:50:26;5.85;;;1.50;;
81310;SDS011;70779;52.506;5.492;2023-08-20T18:52:53;4.22;;;1.35;;
81310;SDS011;70779;52.506;5.492;2023-08-20T18:55:19;5.03;;;1.20;;
81310;SDS011;70779;52.506;5.492;2023-08-20T18:57:45;7.47;;;1.10;;
81310;SDS011;70779;52.506;5.492;2023-08-20T19:00:11;3.78;;;1.05;;
81310;SDS011;70779;52.506;5.492;2023-08-20T19:02:37;6.53;;;0.90;;
81310;SDS011;70779;52.506;5.492;2023-08-20T19:05:04;2.88;;;0.77;;
81310;SDS011;70779;52.506;5.492;2023-08-20T19:07:31;3.75;;;0.70;;
81310;SDS011;70779;52.506;5.492;2023-08-20T19:09:58;4.35;;;1.30;;
81310;SDS011;70779;52.506;5.492;2023-08-20T19:12:24;3.53;;;0.95;;
81310;SDS011;70779;52.506;5.492;2023-08-20T19:14:50;5.95;;;1.30;;
81310;SDS011;70779;52.506;5.492;2023-08-20T19:17:16;3.35;;;1.10;;
81310;SDS011;70779;52.506;5.492;2023-08-20T19:19:42;4.38;;;1.00;;
81310;SDS011;70779;52.506;5.492;2023-08-20T19:22:08;6.43;;;1.10;;
81310;SDS011;70779;52.506;5.492;2023-08-20T19:24:34;5.07;;;1.10;;
81310;SDS011;70779;52.506;5.492;2023-08-20T19:27:00;5.45;;;1.55;;
81310;SDS011;70779;52.506;5.492;2023-08-20T19:29:26;5.60;;;1.20;;
81310;SDS011;70779;52.506;5.492;2023-08-20T19:31:53;6.75;;;1.58;;
81310;SDS011;70779;52.506;5.492;2023-08-20T19:34:19;4.75;;;1.10;;
81310;SDS011;70779;52.506;5.492;2023-08-20T19:36:45;8.80;;;1.27;;
81310;SDS011;70779;52.506;5.492;2023-08-20T19:39:11;4.97;;;1.35;;
81310;SDS011;70779;52.506;5.492;2023-08-20T19:41:37;3.83;;;1.10;;
81310;SDS011;70779;52.506;5.492;2023-08-20T19:44:03;5.82;;;1.08;;
81310;SDS011;70779;52.506;5.492;2023-08-20T19:46:29;4.22;;;1.13;;
81310;SDS011;70779;52.506;5.492;2023-08-20T19:48:55;7.32;;;1.55;;